Time;durP1;ratioP1;P1;durP2;ratioP2;P2;SDS_P1;SDS_P2;PMS_P1;PMS_P2;Temp;Humidity;BMP_temperature;BMP_pressure;BME280_temperature;BME280_humidity;BME280_pressure;Samples;Min_cycle;Max_cycle;Signal;HPM_P1;HPM_P2
2021/06/14 00:01:36;;;;;;;3.10;1.48;;;23.80;52.80;;;;;;5016306;28;20014;-60
2021/06/14 00:04:02;;;;;;;1.33;1.10;;;23.80;52.80;;;;;;5015885;28;20050;-60
2021/06/14 00:06:27;;;;;;;3.60;1.80;;;23.80;52.90;;;;;;5016225;28;20558;-59
2021/06/14 00:08:53;;;;;;;2.83;1.60;;;23.80;52.90;;;;;;5015747;28;20041;-60
2021/06/14 00:11:18;;;;;;;2.83;1.30;;;23.80;52.90;;;;;;5016123;28;20045;-60
2021/06/14 00:13:44;;;;;;;3.20;1.20;;;23.80;52.90;;;;;;5015797;28;20029;-59
2021/06/14 00:16:10;;;;;;;3.10;1.67;;;23.80;53.00;;;;;;5015963;28;20378;-60
2021/06/14 00:18:37;;;;;;;2.00;1.50;;;23.70;52.90;;;;;;5015690;28;20033;-60
2021/06/14 00:21:13;;;;;;;2.97;1.38;;;23.70;53.00;;;;;;5015910;28;20045;-60
2021/06/14 00:23:39;;;;;;;2.33;1.30;;;23.70;53.00;;;;;;5015597;28;20442;-59
2021/06/14 00:26:09;;;;;;;3.80;1.25;;;23.80;53.10;;;;;;5015667;28;20057;-60
2021/06/14 00:28:36;;;;;;;2.03;1.38;;;23.70;53.10;;;;;;5015593;28;20115;-59
2021/06/14 00:31:03;;;;;;;2.80;1.27;;;23.70;53.10;;;;;;5015478;28;20472;-59
2021/06/14 00:33:28;;;;;;;3.88;1.35;;;23.70;53.10;;;;;;5015241;28;20523;-59
2021/06/14 00:35:54;;;;;;;3.55;1.55;;;23.70;53.20;;;;;;5015601;28;20026;-60
2021/06/14 00:38:20;;;;;;;2.05;1.30;;;23.70;53.20;;;;;;5015193;28;20029;-59
2021/06/14 00:40:47;;;;;;;4.03;1.40;;;23.70;53.20;;;;;;5015288;28;20040;-59
2021/06/14 00:43:13;;;;;;;2.38;1.10;;;23.70;53.30;;;;;;5015323;28;20038;-60
2021/06/14 00:45:45;;;;;;;2.88;1.33;;;23.70;53.30;;;;;;5015382;28;20100;-59
2021/06/14 00:48:11;;;;;;;2.22;1.40;;;23.70;53.40;;;;;;5013726;28;20029;-59
2021/06/14 00:50:49;;;;;;;1.42;1.30;;;23.60;53.40;;;;;;5014992;28;20026;-59
2021/06/14 00:53:23;;;;;;;2.50;1.40;;;23.60;53.30;;;;;;5014990;28;20068;-59
2021/06/14 00:55:50;;;;;;;1.75;1.38;;;23.60;53.40;;;;;;5015192;28;20026;-59
2021/06/14 00:58:16;;;;;;;2.80;1.50;;;23.70;53.50;;;;;;5015224;28;20396;-59
2021/06/14 01:00:42;;;;;;;1.58;1.30;;;23.60;53.40;;;;;;5013621;28;20113;-59
2021/06/14 01:03:08;;;;;;;2.75;1.60;;;23.60;53.50;;;;;;5014495;28;20113;-59
2021/06/14 01:05:39;;;;;;;3.53;1.67;;;23.70;53.60;;;;;;5014748;28;20014;-59
2021/06/14 01:08:09;;;;;;;2.30;1.40;;;23.70;53.60;;;;;;5014297;28;20404;-59
2021/06/14 01:10:36;;;;;;;1.73;1.40;;;23.60;53.50;;;;;;5014027;28;20057;-59
2021/06/14 01:13:21;;;;;;;2.78;1.80;;;23.60;53.50;;;;;;5013374;28;20022;-60
2021/06/14 01:15:53;;;;;;;2.75;1.90;;;23.70;53.70;;;;;;5014628;28;20056;-61
2021/06/14 01:18:32;;;;;;;2.55;1.40;;;23.60;53.60;;;;;;5014481;28;20556;-61
2021/06/14 01:21:12;;;;;;;2.92;1.40;;;23.60;53.70;;;;;;5014609;28;20053;-61
2021/06/14 01:24:00;;;;;;;1.65;1.30;;;23.60;53.70;;;;;;5014577;28;20030;-61
2021/06/14 01:26:31;;;;;;;1.38;1.13;;;23.60;53.60;;;;;;5014272;28;20380;-62
2021/06/14 01:28:59;;;;;;;3.22;1.02;;;23.60;53.70;;;;;;5014337;28;20034;-61
2021/06/14 01:31:27;;;;;;;2.08;1.38;;;23.70;53.80;;;;;;5014231;28;20034;-60
2021/06/14 01:33:54;;;;;;;2.50;1.60;;;23.60;53.80;;;;;;5014181;28;20032;-61
2021/06/14 01:36:24;;;;;;;3.08;1.30;;;23.60;53.90;;;;;;5014220;28;20054;-61
2021/06/14 01:38:51;;;;;;;2.72;1.63;;;23.60;53.90;;;;;;5012859;28;20022;-61
2021/06/14 01:41:18;;;;;;;2.05;1.60;;;23.60;53.90;;;;;;5014203;28;20080;-61
2021/06/14 01:43:46;;;;;;;2.17;1.70;;;23.60;53.90;;;;;;5014318;28;20014;-61
2021/06/14 01:46:17;;;;;;;2.35;1.70;;;23.60;53.90;;;;;;5014108;28;20038;-61
2021/06/14 01:48:44;;;;;;;2.30;1.38;;;23.50;53.90;;;;;;5012684;28;20037;-61
2021/06/14 01:51:12;;;;;;;2.67;1.50;;;23.60;54.00;;;;;;5014039;28;20034;-61
2021/06/14 01:53:38;;;;;;;1.55;1.05;;;23.80;54.10;;;;;;5014067;28;20028;-61
2021/06/14 01:56:06;;;;;;;2.28;1.30;;;23.60;54.00;;;;;;5013743;28;20480;-61
2021/06/14 01:58:33;;;;;;;2.13;1.50;;;23.60;54.00;;;;;;5013680;28;20030;-59
2021/06/14 02:01:00;;;;;;;2.03;1.40;;;23.60;53.50;;;;;;5012414;28;20504;-61
2021/06/14 02:03:29;;;;;;;1.75;1.38;;;23.60;54.10;;;;;;5013604;28;20045;-61
2021/06/14 02:05:56;;;;;;;1.27;1.15;;;23.60;54.00;;;;;;5013704;28;20018;-61
2021/06/14 02:08:23;;;;;;;2.42;1.73;;;23.60;54.00;;;;;;5013483;28;20032;-61
2021/06/14 02:10:50;;;;;;;1.55;1.27;;;23.60;54.10;;;;;;5013605;28;20639;-61
2021/06/14 02:13:18;;;;;;;1.50;1.40;;;23.50;54.00;;;;;;5013876;28;20552;-61
2021/06/14 02:15:44;;;;;;;4.00;2.10;;;23.60;54.10;;;;;;5013622;28;20030;-61
2021/06/14 02:18:11;;;;;;;1.65;1.50;;;23.50;54.10;;;;;;5012382;28;20022;-60
2021/06/14 02:20:39;;;;;;;2.65;1.40;;;23.60;54.20;;;;;;5013724;28;20057;-59
2021/06/14 02:23:04;;;;;;;3.97;1.70;;;23.50;54.10;;;;;;5012763;28;20017;-61
2021/06/14 02:25:30;;;;;;;2.00;1.30;;;23.50;54.20;;;;;;5013313;28;20117;-60
2021/06/14 02:27:56;;;;;;;2.60;1.60;;;23.50;54.20;;;;;;5013581;28;20022;-61
2021/06/14 02:30:26;;;;;;;1.63;1.42;;;23.50;54.20;;;;;;5013252;28;20041;-61
2021/06/14 02:32:53;;;;;;;2.25;1.70;;;23.50;54.30;;;;;;5013077;28;20476;-61
2021/06/14 02:35:20;;;;;;;3.13;1.33;;;23.50;54.20;;;;;;5013192;28;20057;-59
2021/06/14 02:37:52;;;;;;;1.42;1.33;;;23.50;54.90;;;;;;5013458;28;20026;-61
2021/06/14 02:40:21;;;;;;;2.80;1.52;;;23.50;54.30;;;;;;5013169;28;20022;-61
2021/06/14 02:42:46;;;;;;;1.60;1.33;;;23.40;78.90;;;;;;5013010;28;20119;-61
2021/06/14 02:45:14;;;;;;;1.63;1.48;;;23.60;54.30;;;;;;5013393;28;20504;-60
2021/06/14 02:47:40;;;;;;;2.08;1.60;;;23.50;54.20;;;;;;5012203;28;20026;-61
2021/06/14 02:50:08;;;;;;;1.70;1.58;;;23.50;54.30;;;;;;5011741;28;20025;-61
2021/06/14 02:52:36;;;;;;;2.33;1.73;;;23.50;54.30;;;;;;5013283;28;20022;-61
2021/06/14 02:55:06;;;;;;;1.67;1.25;;;23.50;54.30;;;;;;5013150;28;20025;-59
2021/06/14 02:57:33;;;;;;;2.38;1.42;;;23.50;54.30;;;;;;5013280;28;20464;-61
2021/06/14 03:00:00;;;;;;;2.35;1.70;;;23.50;54.30;;;;;;5012988;28;20018;-61
2021/06/14 03:02:27;;;;;;;1.92;1.67;;;23.40;79.40;;;;;;5012824;28;20029;-61
2021/06/14 03:04:53;;;;;;;2.08;1.63;;;23.50;54.50;;;;;;5012743;28;20128;-61
2021/06/14 03:07:24;;;;;;;2.08;1.67;;;23.50;54.30;;;;;;5013049;28;20109;-61
2021/06/14 03:09:51;;;;;;;2.63;1.50;;;23.40;54.20;;;;;;5013005;28;20038;-61
2021/06/14 03:12:19;;;;;;;2.67;1.75;;;23.40;54.30;;;;;;5012758;28;20018;-61
2021/06/14 03:14:46;;;;;;;2.35;1.90;;;23.50;54.40;;;;;;5013092;28;20034;-61
2021/06/14 03:17:12;;;;;;;1.98;1.48;;;23.50;54.40;;;;;;5011538;28;20022;-61
2021/06/14 03:19:39;;;;;;;2.15;1.63;;;23.50;54.40;;;;;;5013020;28;20029;-59
2021/06/14 03:22:09;;;;;;;2.25;1.85;;;23.40;54.30;;;;;;5012686;28;20018;-61
2021/06/14 03:24:35;;;;;;;1.63;1.50;;;23.40;54.30;;;;;;5012871;28;20105;-61
2021/06/14 03:27:01;;;;;;;2.35;1.48;;;23.40;54.30;;;;;;5011306;28;20041;-61
2021/06/14 03:29:27;;;;;;;2.53;1.67;;;23.40;54.30;;;;;;5012914;28;20092;-61
2021/06/14 03:31:54;;;;;;;1.98;1.60;;;23.40;54.40;;;;;;5012702;28;20026;-61
2021/06/14 03:34:21;;;;;;;2.53;1.55;;;23.40;54.30;;;;;;5015362;28;20034;-61
2021/06/14 03:36:47;;;;;;;3.67;1.80;;;23.40;54.30;;;;;;5016657;28;20420;-61
2021/06/14 03:39:17;;;;;;;3.95;1.92;;;23.40;54.30;;;;;;5016695;28;20030;-61
2021/06/14 03:41:47;;;;;;;3.88;1.92;;;23.50;54.40;;;;;;5016415;28;20030;-61
2021/06/14 03:44:13;;;;;;;2.78;1.80;;;23.40;54.30;;;;;;5015127;28;20030;-61
2021/06/14 03:46:39;;;;;;;3.55;2.13;;;23.40;54.30;;;;;;5015995;28;20102;-61
2021/06/14 03:49:05;;;;;;;1.52;1.38;;;23.40;54.30;;;;;;5016058;28;20058;-61
2021/06/14 03:51:31;;;;;;;3.28;1.40;;;23.40;54.30;;;;;;5016514;28;20441;-61
2021/06/14 03:53:59;;;;;;;2.13;1.45;;;23.30;54.20;;;;;;5016451;28;20014;-61
2021/06/14 03:56:29;;;;;;;1.73;1.58;;;23.40;54.30;;;;;;5016330;28;20041;-61
2021/06/14 03:58:55;;;;;;;3.05;1.77;;;23.30;54.10;;;;;;5016175;28;20029;-61
2021/06/14 04:01:22;;;;;;;3.45;1.60;;;23.40;54.20;;;;;;5016212;28;20380;-61
2021/06/14 04:06:39;;;;;;;1.58;1.38;;;23.30;54.10;;;;;;5007539;28;20040;-61
2021/06/14 04:09:06;;;;;;;2.97;1.83;;;23.30;54.80;;;;;;5015791;28;20062;-61
2021/06/14 04:11:32;;;;;;;2.60;1.77;;;23.30;54.20;;;;;;5015792;28;20014;-61
2021/06/14 04:13:57;;;;;;;2.15;1.67;;;23.30;54.20;;;;;;5015773;28;20113;-61
2021/06/14 04:16:23;;;;;;;2.60;1.65;;;23.40;54.20;;;;;;5015943;28;20109;-61
2021/06/14 04:18:49;;;;;;;2.42;1.63;;;23.30;54.20;;;;;;5015820;28;20500;-61
2021/06/14 04:21:15;;;;;;;4.43;1.98;;;23.30;54.20;;;;;;5015839;28;20547;-61
2021/06/14 04:23:41;;;;;;;4.90;2.17;;;23.30;54.20;;;;;;5015555;28;20061;-61
2021/06/14 04:26:08;;;;;;;2.75;1.60;;;23.30;54.20;;;;;;5015649;28;20054;-61
2021/06/14 04:28:34;;;;;;;2.03;1.90;;;23.40;54.20;;;;;;5015732;28;20076;-61
2021/06/14 04:30:59;;;;;;;2.53;1.90;;;23.30;54.20;;;;;;5015709;28;20018;-61
2021/06/14 04:33:25;;;;;;;3.00;1.67;;;23.30;54.20;;;;;;5015687;28;20018;-61
2021/06/14 04:35:51;;;;;;;2.53;1.70;;;23.30;54.20;;;;;;5015157;28;20072;-61
2021/06/14 04:38:16;;;;;;;3.72;2.08;;;23.30;54.20;;;;;;5015508;28;20026;-61
2021/06/14 04:40:42;;;;;;;3.47;2.05;;;23.30;54.20;;;;;;5015557;28;20101;-61
2021/06/14 04:43:08;;;;;;;4.32;1.70;;;23.30;54.30;;;;;;5015057;28;20029;-61
2021/06/14 04:45:33;;;;;;;4.40;2.10;;;23.30;54.30;;;;;;5014160;28;20069;-61
2021/06/14 04:47:59;;;;;;;4.32;2.20;;;23.30;54.30;;;;;;5015233;28;20423;-61
2021/06/14 04:50:25;;;;;;;3.45;2.03;;;23.30;54.30;;;;;;5015103;28;20034;-61
2021/06/14 04:52:50;;;;;;;5.85;2.38;;;23.30;54.30;;;;;;5015033;28;20038;-61
2021/06/14 04:55:16;;;;;;;4.22;2.42;;;23.30;54.40;;;;;;5015149;28;20030;-61
2021/06/14 04:57:42;;;;;;;3.97;2.20;;;23.30;54.30;;;;;;5014996;28;20018;-62
2021/06/14 05:00:09;;;;;;;3.55;2.58;;;23.30;54.40;;;;;;5014900;28;20037;-61
2021/06/14 05:02:34;;;;;;;2.78;2.05;;;23.30;54.40;;;;;;5014561;28;20404;-61
2021/06/14 05:05:00;;;;;;;3.72;2.10;;;23.20;54.40;;;;;;5014788;28;20041;-61
2021/06/14 05:07:26;;;;;;;2.83;2.08;;;23.30;54.50;;;;;;5015009;28;20030;-59
2021/06/14 05:09:53;;;;;;;5.05;2.50;;;23.40;54.50;;;;;;5014891;28;20455;-61
2021/06/14 05:12:19;;;;;;;5.95;2.88;;;23.20;54.50;;;;;;5014958;28;20022;-61
2021/06/14 05:14:44;;;;;;;4.78;1.95;;;23.20;54.50;;;;;;5014654;28;20036;-61
2021/06/14 05:17:10;;;;;;;4.78;2.42;;;23.30;54.70;;;;;;5014766;28;20084;-61
2021/06/14 05:19:36;;;;;;;4.82;2.58;;;23.20;54.80;;;;;;5014506;28;20022;-61
2021/06/14 05:22:04;;;;;;;5.40;2.42;;;23.30;55.50;;;;;;5014398;28;20026;-61
2021/06/14 05:24:30;;;;;;;9.57;2.30;;;23.20;55.30;;;;;;5014471;28;20030;-61
2021/06/14 05:26:56;;;;;;;6.35;2.75;;;23.20;55.00;;;;;;5014699;28;20033;-59
2021/06/14 05:29:22;;;;;;;4.90;2.58;;;23.20;55.30;;;;;;5014567;28;20042;-61
2021/06/14 05:31:47;;;;;;;4.85;2.50;;;23.20;55.30;;;;;;5014514;28;20014;-59
2021/06/14 05:34:13;;;;;;;8.30;2.70;;;23.20;55.80;;;;;;5014534;28;20469;-61
2021/06/14 05:36:39;;;;;;;4.63;2.17;;;23.20;56.30;;;;;;5014443;28;20014;-61
2021/06/14 05:39:05;;;;;;;4.38;2.13;;;23.20;56.00;;;;;;5014176;28;20130;-61
2021/06/14 05:41:30;;;;;;;4.13;2.38;;;23.20;56.00;;;;;;5014092;28;20117;-61
2021/06/14 05:43:56;;;;;;;8.57;2.80;;;23.20;56.10;;;;;;5014060;28;20109;-61
2021/06/14 05:46:22;;;;;;;3.58;2.25;;;23.30;56.00;;;;;;4996712;28;20080;-61
2021/06/14 05:48:47;;;;;;;3.90;2.30;;;23.20;56.00;;;;;;5012765;28;20089;-61
2021/06/14 05:51:13;;;;;;;5.78;2.35;;;23.20;55.70;;;;;;5012721;28;20032;-61
2021/06/14 05:53:39;;;;;;;4.95;2.35;;;23.20;55.60;;;;;;5013945;28;20102;-61
2021/06/14 05:56:04;;;;;;;3.13;2.25;;;23.20;55.60;;;;;;5013936;28;20117;-60
2021/06/14 05:58:30;;;;;;;3.88;2.55;;;23.30;55.50;;;;;;5014106;28;20105;-61
2021/06/14 06:00:55;;;;;;;6.82;2.13;;;23.20;55.50;;;;;;5013839;28;20476;-60
2021/06/14 06:03:21;;;;;;;7.40;2.30;;;23.30;55.50;;;;;;5012267;28;20030;-60
2021/06/14 06:05:47;;;;;;;5.88;2.30;;;23.20;55.50;;;;;;5014160;28;20473;-60
2021/06/14 06:08:13;;;;;;;6.40;2.88;;;23.30;55.90;;;;;;5012749;28;20022;-60
2021/06/14 06:10:38;;;;;;;6.47;2.35;;;23.20;55.80;;;;;;5014177;28;20045;-60
2021/06/14 06:13:04;;;;;;;2.88;2.20;;;23.30;56.40;;;;;;5013977;28;20053;-61
2021/06/14 06:15:30;;;;;;;6.22;2.05;;;23.30;56.00;;;;;;5013806;28;20071;-60
2021/06/14 06:17:56;;;;;;;4.15;2.30;;;23.30;56.00;;;;;;5013629;28;20105;-61
2021/06/14 06:20:22;;;;;;;2.70;2.08;;;23.30;56.00;;;;;;5013930;28;20022;-60
2021/06/14 06:22:48;;;;;;;4.68;2.63;;;23.20;56.00;;;;;;5013946;28;20018;-60
2021/06/14 06:25:17;;;;;;;3.28;1.80;;;23.20;55.80;;;;;;5013628;28;20045;-61
2021/06/14 06:27:43;;;;;;;4.45;2.00;;;23.20;55.90;;;;;;5013771;28;20021;-60
2021/06/14 06:30:13;;;;;;;4.55;2.38;;;23.20;55.70;;;;;;5013812;28;20034;-60
2021/06/14 06:32:39;;;;;;;5.93;2.50;;;23.20;55.60;;;;;;5013812;28;20022;-59
2021/06/14 06:35:05;;;;;;;5.80;2.10;;;23.30;55.60;;;;;;5013516;28;20295;-60
2021/06/14 06:37:31;;;;;;;5.28;2.20;;;23.20;55.50;;;;;;5013660;28;20045;-60
2021/06/14 06:39:56;;;;;;;5.32;2.05;;;23.30;55.50;;;;;;5013473;28;20084;-61
2021/06/14 06:42:22;;;;;;;6.72;2.78;;;23.30;55.50;;;;;;5013589;28;20022;-61
2021/06/14 06:44:48;;;;;;;5.32;2.47;;;23.30;55.50;;;;;;5013188;28;20034;-61
2021/06/14 06:47:13;;;;;;;4.47;2.28;;;23.50;81.20;;;;;;5012986;28;20018;-62
2021/06/14 06:49:39;;;;;;;5.45;2.83;;;23.20;55.70;;;;;;5013271;28;20045;-60
2021/06/14 06:52:05;;;;;;;2.55;1.90;;;23.40;55.90;;;;;;5013243;28;20511;-61
2021/06/14 06:54:30;;;;;;;7.38;2.17;;;23.20;55.70;;;;;;5012879;28;20053;-61
2021/06/14 06:56:56;;;;;;;5.18;2.03;;;23.30;56.00;;;;;;5013227;28;20029;-60
2021/06/14 06:59:23;;;;;;;3.45;2.22;;;23.20;55.90;;;;;;5013035;28;20037;-61
2021/06/14 07:01:49;;;;;;;5.18;2.45;;;23.10;81.30;;;;;;5013001;28;20018;-60
2021/06/14 07:04:14;;;;;;;4.20;1.90;;;23.50;56.10;;;;;;5012837;28;20378;-60
2021/06/14 07:06:40;;;;;;;3.85;2.30;;;23.30;55.80;;;;;;5012823;28;20510;-61
2021/06/14 07:09:07;;;;;;;4.25;2.40;;;23.30;55.80;;;;;;5014819;28;20033;-60
2021/06/14 07:11:33;;;;;;;3.38;2.17;;;23.20;56.00;;;;;;5017132;28;20388;-60
2021/06/14 07:13:59;;;;;;;2.58;2.13;;;23.30;56.20;;;;;;5017223;28;20024;-60
2021/06/14 07:16:25;;;;;;;5.70;2.50;;;23.30;55.60;;;;;;5016735;28;20076;-61
2021/06/14 07:18:52;;;;;;;5.78;2.55;;;23.20;55.50;;;;;;5016727;28;20030;-60
2021/06/14 07:21:18;;;;;;;3.22;2.20;;;23.30;56.20;;;;;;5016743;28;20033;-60
2021/06/14 07:23:44;;;;;;;4.22;2.50;;;23.20;55.40;;;;;;5017005;28;20014;-61
2021/06/14 07:26:10;;;;;;;4.45;2.17;;;23.20;55.30;;;;;;5016712;28;20639;-60
2021/06/14 07:28:37;;;;;;;4.43;2.53;;;23.30;55.40;;;;;;5016755;28;20056;-61
2021/06/14 07:31:04;;;;;;;6.65;2.97;;;23.30;55.40;;;;;;5016424;28;20025;-60
2021/06/14 07:33:30;;;;;;;4.90;2.53;;;23.30;55.40;;;;;;5016716;28;20030;-61
2021/06/14 07:35:56;;;;;;;5.78;2.60;;;23.30;55.30;;;;;;5016710;28;20022;-61
2021/06/14 07:38:23;;;;;;;6.72;2.70;;;23.20;55.20;;;;;;5016138;28;20346;-60
2021/06/14 07:40:49;;;;;;;3.70;2.05;;;23.70;55.40;;;;;;5016366;28;20113;-60
2021/06/14 07:43:16;;;;;;;6.45;2.67;;;23.20;55.20;;;;;;5016222;28;20030;-61
2021/06/14 07:45:45;;;;;;;4.45;2.45;;;23.50;55.30;;;;;;5016329;28;20022;-60
2021/06/14 07:48:11;;;;;;;4.45;2.00;;;23.30;55.60;;;;;;5016512;28;20404;-61
2021/06/14 07:50:39;;;;;;;3.97;2.67;;;23.30;55.30;;;;;;5016535;28;20018;-60
2021/06/14 07:53:05;;;;;;;4.60;2.60;;;23.20;55.30;;;;;;5016348;28;20362;-61
2021/06/14 07:55:31;;;;;;;6.50;2.33;;;23.20;55.30;;;;;;5016060;28;20025;-61
2021/06/14 07:57:57;;;;;;;3.35;2.35;;;23.20;55.10;;;;;;5016075;28;20022;-61
2021/06/14 08:00:22;;;;;;;3.40;2.40;;;23.20;55.10;;;;;;5015806;28;20086;-60
2021/06/14 08:02:48;;;;;;;5.32;2.72;;;23.20;55.00;;;;;;5015998;28;20029;-61
2021/06/14 08:05:14;;;;;;;4.55;2.67;;;23.20;55.70;;;;;;5015645;28;20045;-61
2021/06/14 08:07:40;;;;;;;3.67;2.22;;;23.30;55.20;;;;;;5015868;28;20022;-61
2021/06/14 08:10:09;;;;;;;4.88;2.45;;;23.30;55.20;;;;;;5015652;28;20415;-60
2021/06/14 08:12:40;;;;;;;5.10;2.25;;;23.30;55.30;;;;;;5015806;28;20014;-61
2021/06/14 08:15:05;;;;;;;;;;;23.30;55.20;;;;;;5016714;28;20393;-61
2021/06/14 08:17:31;;;;;;;3.60;2.50;;;23.30;55.30;;;;;;5016138;28;19916;-60
2021/06/14 08:20:06;;;;;;;4.93;2.20;;;23.30;55.40;;;;;;5015706;28;20091;-61
2021/06/14 08:25:17;;;;;;;3.85;2.67;;;23.40;55.50;;;;;;5015729;28;20096;-61
2021/06/14 08:27:46;;;;;;;5.32;2.35;;;23.30;55.50;;;;;;5014387;28;20408;-62
2021/06/14 08:30:14;;;;;;;6.22;2.40;;;23.60;55.60;;;;;;5015743;28;20041;-61
2021/06/14 08:32:40;;;;;;;5.35;2.30;;;23.30;55.40;;;;;;5015447;28;20022;-62
2021/06/14 08:35:08;;;;;;;4.72;2.63;;;23.40;55.60;;;;;;5015475;28;20022;-61
2021/06/14 08:37:35;;;;;;;6.07;2.28;;;23.40;55.70;;;;;;5015654;28;20073;-61
2021/06/14 08:40:01;;;;;;;5.70;2.40;;;23.30;55.60;;;;;;5015155;28;20771;-61
2021/06/14 08:42:27;;;;;;;6.47;2.53;;;23.40;55.70;;;;;;5015592;28;20026;-61
2021/06/14 08:44:54;;;;;;;4.22;2.47;;;23.40;55.50;;;;;;5015234;28;20029;-61
2021/06/14 08:47:22;;;;;;;4.85;2.65;;;23.50;55.50;;;;;;5015099;28;20022;-61
2021/06/14 08:49:48;;;;;;;5.85;2.90;;;23.50;55.40;;;;;;5015066;28;20033;-60
2021/06/14 08:52:13;;;;;;;6.85;2.15;;;23.50;55.30;;;;;;5015314;28;20017;-61
2021/06/14 08:54:43;;;;;;;6.85;2.53;;;23.50;55.00;;;;;;5015292;28;20025;-60
2021/06/14 08:57:13;;;;;;;5.10;3.30;;;23.50;54.30;;;;;;5015223;28;20032;-61
2021/06/14 08:59:40;;;;;;;;;;;23.60;53.60;;;;;;5015677;28;20276;-61
2021/06/14 09:02:06;;;;;;;5.88;2.78;;;23.60;53.40;;;;;;5014786;28;19906;-60
2021/06/14 09:04:32;;;;;;;6.28;3.00;;;23.60;53.40;;;;;;5014700;28;20060;-60
2021/06/14 09:06:59;;;;;;;12.73;2.70;;;23.60;53.30;;;;;;5015119;28;20049;-59
2021/06/14 09:09:28;;;;;;;6.75;2.72;;;23.70;53.40;;;;;;5014575;28;20041;-60
2021/06/14 09:11:55;;;;;;;9.17;2.63;;;23.70;53.40;;;;;;5014666;28;20038;-59
2021/06/14 09:14:23;;;;;;;9.60;2.80;;;23.80;53.70;;;;;;5014671;28;20311;-58
2021/06/14 09:16:51;;;;;;;6.65;2.67;;;23.80;53.70;;;;;;5014808;28;20014;-59
2021/06/14 09:19:33;;;;;;;5.43;2.42;;;23.80;53.60;;;;;;5014869;28;20109;-59
2021/06/14 09:22:11;;;;;;;6.53;2.50;;;23.90;53.20;;;;;;5014508;28;20393;-59
2021/06/14 09:24:37;;;;;;;5.00;2.60;;;23.90;53.10;;;;;;5014769;28;20037;-60
2021/06/14 09:27:03;;;;;;;5.53;3.20;;;23.90;52.80;;;;;;5014366;28;20489;-59
2021/06/14 09:29:29;;;;;;;8.52;2.80;;;23.90;52.70;;;;;;5012946;28;20496;-59
2021/06/14 09:32:00;;;;;;;5.05;2.63;;;24.00;52.80;;;;;;5014058;28;20041;-59
2021/06/14 09:34:46;;;;;;;10.73;3.20;;;24.00;52.60;;;;;;5014504;28;20036;-59
2021/06/14 09:37:15;;;;;;;4.93;2.80;;;24.00;52.50;;;;;;5013055;28;20053;-59
2021/06/14 09:39:44;;;;;;;3.03;2.50;;;24.10;52.50;;;;;;5014529;28;20079;-59
2021/06/14 09:42:16;;;;;;;10.97;2.50;;;24.10;52.40;;;;;;5014460;28;20022;-59
2021/06/14 09:44:42;;;;;;;4.57;2.30;;;24.20;52.30;;;;;;5014139;28;20037;-59
2021/06/14 09:47:11;;;;;;;3.70;2.30;;;24.20;52.20;;;;;;5014400;28;20022;-59
2021/06/14 09:49:38;;;;;;;3.70;2.13;;;24.20;52.20;;;;;;5013882;28;20497;-59
2021/06/14 09:52:05;;;;;;;3.83;2.38;;;24.20;52.10;;;;;;5014251;28;20018;-58
2021/06/14 09:54:35;;;;;;;8.70;2.40;;;24.20;52.00;;;;;;5013948;28;20103;-60
2021/06/14 09:57:03;;;;;;;;;;;24.20;51.90;;;;;;5014316;28;20033;-60
2021/06/14 09:59:33;;;;;;;8.85;2.90;;;24.20;51.80;;;;;;5013705;28;19984;-60
2021/06/14 10:02:10;;;;;;;5.93;2.90;;;24.30;51.50;;;;;;5013839;28;20018;-59
2021/06/14 10:04:35;;;;;;;5.47;2.97;;;24.30;51.40;;;;;;5013615;28;20045;-59
2021/06/14 10:07:12;;;;;;;9.35;2.83;;;24.40;51.50;;;;;;5013688;28;20088;-60
2021/06/14 10:09:43;;;;;;;4.93;2.25;;;24.40;51.40;;;;;;5013464;28;20061;-60
2021/06/14 10:12:24;;;;;;;8.60;3.17;;;24.40;51.20;;;;;;5013994;28;20354;-59
2021/06/14 10:14:56;;;;;;;5.93;2.95;;;24.40;50.90;;;;;;5013843;28;20030;-59
2021/06/14 10:17:30;;;;;;;4.93;2.92;;;24.50;50.50;;;;;;5013621;28;20033;-60
2021/06/14 10:20:27;;;;;;;4.22;2.60;;;24.50;49.70;;;;;;5013768;28;20030;-60
2021/06/14 10:22:55;;;;;;;5.28;2.42;;;24.50;49.70;;;;;;5013001;28;20492;-60
2021/06/14 10:25:23;;;;;;;7.57;2.63;;;24.60;49.80;;;;;;5013505;28;20034;-60
2021/06/14 10:27:50;;;;;;;6.70;3.10;;;24.60;49.60;;;;;;5013237;28;20014;-60
2021/06/14 10:30:18;;;;;;;7.88;2.78;;;24.90;74.70;;;;;;5013346;28;20422;-60
2021/06/14 10:32:45;;;;;;;4.80;2.38;;;24.70;48.90;;;;;;5013055;28;20556;-60
2021/06/14 10:35:13;;;;;;;8.68;2.97;;;24.70;48.40;;;;;;5013170;28;20038;-60
2021/06/14 10:38:00;;;;;;;8.55;2.88;;;24.80;48.60;;;;;;5013340;28;20018;-60
2021/06/14 10:40:27;;;;;;;10.27;2.70;;;24.80;48.90;;;;;;5013432;28;20030;-60
2021/06/14 10:42:54;;;;;;;5.20;2.75;;;24.80;48.80;;;;;;5012540;28;20448;-60
2021/06/14 10:45:24;;;;;;;8.23;2.88;;;24.80;48.40;;;;;;5013590;28;20030;-60
2021/06/14 10:47:50;;;;;;;3.90;2.40;;;24.80;48.40;;;;;;5013393;28;20037;-60
2021/06/14 10:50:22;;;;;;;8.70;2.42;;;24.80;48.40;;;;;;5012974;28;20500;-60
2021/06/14 10:52:48;;;;;;;7.03;2.53;;;24.80;48.40;;;;;;5012868;28;20465;-60
2021/06/14 10:55:16;;;;;;;7.70;2.70;;;24.90;48.40;;;;;;5013145;28;20030;-60
2021/06/14 10:57:42;;;;;;;8.10;2.70;;;24.80;48.30;;;;;;5012988;28;20522;-60
2021/06/14 11:00:31;;;;;;;6.55;2.72;;;24.80;48.00;;;;;;5013170;28;20021;-59
2021/06/14 11:03:05;;;;;;;5.20;2.80;;;24.80;47.80;;;;;;5012703;28;20030;-60
2021/06/14 11:05:48;;;;;;;6.72;2.50;;;24.90;47.80;;;;;;5013066;28;20087;-60
2021/06/14 11:08:23;;;;;;;5.07;2.60;;;24.90;47.60;;;;;;5012911;28;20172;-59
2021/06/14 11:11:09;;;;;;;5.68;2.60;;;24.90;47.60;;;;;;5012712;28;20117;-60
2021/06/14 11:13:46;;;;;;;7.07;2.35;;;24.90;47.60;;;;;;5012485;28;20105;-60
2021/06/14 11:16:12;;;;;;;5.68;2.80;;;24.90;47.60;;;;;;5012969;28;20022;-60
2021/06/14 11:18:37;;;;;;;5.25;2.75;;;24.90;47.10;;;;;;5012893;28;20029;-59
2021/06/14 11:21:16;;;;;;;8.38;2.97;;;24.90;46.90;;;;;;5011292;28;20026;-60
2021/06/14 11:23:45;;;;;;;5.25;2.97;;;24.90;46.40;;;;;;5012989;28;20105;-60
2021/06/14 11:26:12;;;;;;;4.22;2.13;;;25.00;46.30;;;;;;5012647;28;20021;-60
2021/06/14 11:28:43;;;;;;;7.72;2.55;;;25.00;46.30;;;;;;5012892;28;20030;-60
2021/06/14 11:31:23;;;;;;;6.35;2.50;;;25.00;46.00;;;;;;5012693;28;20084;-60
2021/06/14 11:33:52;;;;;;;6.18;2.55;;;25.00;45.80;;;;;;5012619;28;20491;-60
2021/06/14 11:36:29;;;;;;;4.82;2.55;;;25.00;45.90;;;;;;5012892;28;20088;-60
2021/06/14 11:38:57;;;;;;;6.95;2.55;;;25.00;45.90;;;;;;5012892;28;20456;-61
2021/06/14 11:41:34;;;;;;;4.15;2.30;;;25.00;45.60;;;;;;5012875;28;20115;-60
2021/06/14 11:44:28;;;;;;;4.55;2.08;;;25.10;45.60;;;;;;5012512;28;20100;-60
2021/06/14 11:47:10;;;;;;;4.60;2.30;;;25.10;45.60;;;;;;5011313;28;20037;-59
2021/06/14 11:49:35;;;;;;;6.38;2.70;;;25.10;45.30;;;;;;5012748;28;20042;-59
2021/06/14 11:52:04;;;;;;;5.78;2.85;;;25.10;45.20;;;;;;5011157;28;20052;-59
2021/06/14 11:54:30;;;;;;;6.22;2.85;;;25.10;45.40;;;;;;5013409;28;20544;-60
2021/06/14 11:57:01;;;;;;;4.40;2.30;;;25.10;45.80;;;;;;5016299;28;20060;-59
2021/06/14 11:59:35;;;;;;;2.88;2.25;;;25.10;46.00;;;;;;5016287;28;20109;-60
2021/06/14 12:02:24;;;;;;;2.97;2.10;;;25.10;46.20;;;;;;5016049;28;20030;-60
2021/06/14 12:04:52;;;;;;;3.55;1.90;;;25.20;46.10;;;;;;5010723;28;20050;-60
2021/06/14 12:07:33;;;;;;;4.63;2.28;;;25.20;46.10;;;;;;5016221;28;20404;-60
2021/06/14 12:10:17;;;;;;;4.70;2.53;;;25.20;46.30;;;;;;5016144;28;20062;-60
2021/06/14 12:12:47;;;;;;;4.00;2.25;;;25.10;46.30;;;;;;5016103;28;20018;-60
2021/06/14 12:15:13;;;;;;;5.10;2.28;;;25.30;46.40;;;;;;5016031;28;20026;-60
2021/06/14 12:17:42;;;;;;;4.88;2.22;;;25.10;46.30;;;;;;5016022;28;20441;-60
2021/06/14 12:20:09;;;;;;;3.33;2.20;;;25.20;46.50;;;;;;5015962;28;20025;-60
2021/06/14 12:22:35;;;;;;;3.17;2.45;;;25.20;46.50;;;;;;5015892;28;20109;-61
2021/06/14 12:25:08;;;;;;;2.97;2.42;;;25.20;46.40;;;;;;5015618;28;20052;-60
2021/06/14 12:27:34;;;;;;;4.72;2.28;;;25.20;46.50;;;;;;5015893;28;20076;-60
2021/06/14 12:30:03;;;;;;;4.82;2.13;;;25.20;46.90;;;;;;5015711;28;20030;-60
2021/06/14 12:32:30;;;;;;;3.67;2.30;;;25.20;46.60;;;;;;5015448;28;20076;-61
2021/06/14 12:35:03;;;;;;;5.05;2.40;;;25.20;46.40;;;;;;5015417;28;20022;-59
2021/06/14 12:37:29;;;;;;;2.60;2.20;;;25.20;46.30;;;;;;5015578;28;20022;-60
2021/06/14 12:40:02;;;;;;;3.10;1.92;;;25.20;46.30;;;;;;5014104;28;20033;-59
2021/06/14 12:42:28;;;;;;;6.82;2.40;;;25.30;46.40;;;;;;5015547;28;20071;-60
2021/06/14 12:45:12;;;;;;;4.28;1.95;;;25.20;46.70;;;;;;5015141;28;20025;-60
2021/06/14 12:47:49;;;;;;;4.45;1.67;;;25.40;70.50;;;;;;5015404;28;20048;-60
2021/06/14 12:50:25;;;;;;;4.32;2.08;;;25.30;46.30;;;;;;5015380;28;20029;-60
2021/06/14 12:52:52;;;;;;;7.28;2.28;;;25.30;46.20;;;;;;5015207;28;20045;-60
2021/06/14 12:55:23;;;;;;;4.95;1.92;;;25.30;46.10;;;;;;5015041;28;20026;-60
2021/06/14 12:57:49;;;;;;;5.50;2.58;;;25.30;46.00;;;;;;5015195;28;20022;-60
2021/06/14 13:00:18;;;;;;;6.18;2.45;;;25.40;45.80;;;;;;5015160;28;20021;-60